Hartland Point — ZIQS6 — position and weather

sailwx.info

Track history (hours):
 
Tides and Currents Weather Stations Pressure Air Temp Water Temp Dewpoint Dewpoint Depression Visibility Wind Speed Wind Dir Waves Ship Positions

Hartland Point

Last reported at 2016-Apr-29 21:33 UTC. Time now 2016-Apr-30 01:29 UTC.
Position N 49°50' W 002°49'.

Length 193 m; draft 5.8 m.

Type: Ship. MMSI: 235505000.

Date/timePositionNaut miles runAvg speedWind from/ knotsBaromVisibWave heightAir tempDewpointWater temp
2016-Apr-29 21:33N 49°50' W 002°49'1312.3
2016-Apr-29 20:28N 49°44' W 003°08'1112.6
2016-Apr-29 19:33N 49°38' W 003°23'162 8.0
2016-Apr-28 23:12N 46°56' W 003°36'913.0
2016-Apr-28 22:30N 46°52' W 003°24'5512.7
2016-Apr-28 18:11N 46°23' W 002°16'812.5
2016-Apr-28 17:33N 46°19' W 002°06'1312.6
2016-Apr-28 16:33N 46°12' W 001°51'1212.3
2016-Apr-28 15:33N 46°07' W 001°34'1212.1
2016-Apr-28 14:33N 46°06' W 001°17'4 3.9
2016-Apr-28 13:32N 46°09' W 001°14'0 0.0
2016-Apr-28 12:31N 46°09' W 001°14'0 0.0
2016-Apr-28 11:28N 46°09' W 001°14'0 0.0
2016-Apr-28 10:34N 46°09' W 001°14'0 0.0
2016-Apr-28 09:33N 46°09' W 001°14'0 0.0
2016-Apr-28 08:33N 46°09' W 001°14'0 0.0
2016-Apr-28 07:32N 46°09' W 001°14'0 0.0
2016-Apr-28 06:32N 46°09' W 001°14'0 0.0
2016-Apr-28 05:31N 46°09' W 001°14'0 0.2
2016-Apr-28 04:33N 46°09' W 001°14'8 7.8
2016-Apr-28 03:33N 46°06' W 001°24'1413.8
2016-Apr-28 02:33N 46°09' W 001°44'1413.9
2016-Apr-28 01:33N 46°16' W 002°01'1111.1
2016-Apr-28 00:33N 46°18' W 002°17'1313.4
2016-Apr-27 23:33N 46°28' W 002°30'1 0.7
2016-Apr-27 22:33N 46°28' W 002°29'3013.1
2016-Apr-27 20:18N 46°43' W 003°06'1114.7
2016-Apr-27 19:33N 46°49' W 003°19'179 9.4
2016-Apr-27 00:33N 49°47' W 003°28'1515.3
2016-Apr-26 23:33N 49°55' W 003°07'1414.1
2016-Apr-26 22:34N 50°01' W 002°47'7314.5
2016-Apr-26 17:33N 50°32' W 001°05'1212.0
2016-Apr-26 16:33N 50°44' W 001°05'1312.5
2016-Apr-26 15:33N 50°51' W 001°21'3 3.2
2016-Apr-26 14:30N 50°54' W 001°25'0 0.0
2016-Apr-26 13:32N 50°54' W 001°25'0 0.0
2016-Apr-26 12:29N 50°54' W 001°25'0 0.0
2016-Apr-26 11:31N 50°54' W 001°25'0 0.0
2016-Apr-26 10:31N 50°54' W 001°25'0 0.0
2016-Apr-26 09:33N 50°54' W 001°25'0 0.0
2016-Apr-26 08:30N 50°54' W 001°25'0 0.0
2016-Apr-26 07:26N 50°54' W 001°25'0 0.0
2016-Apr-26 06:32N 50°54' W 001°25'0 0.0
2016-Apr-26 05:23N 50°54' W 001°25'0 0.0
2016-Apr-26 04:28N 50°54' W 001°25'0 0.0
2016-Apr-26 03:28N 50°54' W 001°25'0 0.0
2016-Apr-26 02:33N 50°54' W 001°25'0 0.0
2016-Apr-26 01:30N 50°54' W 001°25'0 0.0
2016-Apr-26 00:29N 50°54' W 001°25'0 0.0
2016-Apr-25 23:32N 50°54' W 001°25'0 0.0
2016-Apr-25 22:26N 50°54' W 001°25'0 0.0
2016-Apr-25 21:28N 50°54' W 001°25'0 0.0
2016-Apr-25 20:28N 50°54' W 001°25'0 0.0
2016-Apr-25 19:33N 50°54' W 001°25'0 0.0
2016-Apr-25 18:33N 50°54' W 001°25'0 0.0
2016-Apr-25 17:26N 50°54' W 001°25'0 0.0
2016-Apr-25 16:20N 50°54' W 001°25'0 0.0
2016-Apr-25 15:29N 50°54' W 001°25'0 0.0
2016-Apr-25 14:31N 50°54' W 001°25'0 0.0
2016-Apr-25 13:31N 50°54' W 001°25'0 0.0
2016-Apr-25 12:30N 50°54' W 001°25'0 0.0
2016-Apr-25 10:20N 50°54' W 001°25'0 0.0
2016-Apr-25 09:32N 50°54' W 001°25'0 0.0
2016-Apr-25 07:22N 50°54' W 001°25'0 0.0
2016-Apr-25 06:31N 50°54' W 001°25'0 0.0
2016-Apr-25 05:27N 50°54' W 001°25'0 0.0
2016-Apr-25 03:14N 50°54' W 001°25'0 0.0
2016-Apr-25 02:26N 50°54' W 001°25'0 0.0
2016-Apr-25 01:32N 50°54' W 001°25'0 0.0
2016-Apr-25 00:22N 50°54' W 001°25'0 0.0
2016-Apr-24 23:31N 50°54' W 001°25'0 0.0
2016-Apr-24 22:33N 50°54' W 001°25'0 0.0
2016-Apr-24 21:33N 50°54' W 001°25'0 0.0
2016-Apr-24 20:26N 50°54' W 001°25'0 0.0
2016-Apr-24 19:20N 50°54' W 001°25'0 0.0
2016-Apr-24 18:31N 50°54' W 001°25'0 0.0
2016-Apr-24 17:31N 50°54' W 001°25'0 0.0
2016-Apr-24 16:31N 50°54' W 001°25'0 0.0
2016-Apr-24 15:30N 50°54' W 001°25'0 0.0
2016-Apr-24 14:33N 50°54' W 001°25'0 0.0
2016-Apr-24 13:32N 50°54' W 001°25'0 0.0
2016-Apr-24 12:32N 50°54' W 001°25'0 0.0
2016-Apr-24 11:28N 50°54' W 001°25'0 0.0
2016-Apr-24 10:31N 50°54' W 001°25'0 0.0
2016-Apr-24 09:28N 50°54' W 001°25'0 0.0
2016-Apr-24 08:27N 50°54' W 001°25'0 0.0
2016-Apr-24 07:33N 50°54' W 001°25'0 0.0
2016-Apr-24 06:32N 50°54' W 001°25'0 0.0
2016-Apr-24 05:32N 50°54' W 001°25'0 0.0
2016-Apr-24 04:31N 50°54' W 001°25'0 0.0
2016-Apr-24 03:31N 50°54' W 001°25'0 0.0
2016-Apr-24 02:28N 50°54' W 001°25'0 0.0
2016-Apr-24 01:33N 50°54' W 001°25'0 0.0
2016-Apr-24 00:33N 50°54' W 001°25'0 0.0
2016-Apr-23 23:32N 50°54' W 001°25'0 0.0
2016-Apr-23 22:32N 50°54' W 001°25'0 0.0
2016-Apr-23 21:31N 50°54' W 001°25'0 0.0
2016-Apr-23 20:31N 50°54' W 001°25'0 0.0
2016-Apr-23 19:34N 50°54' W 001°25'0 0.0
2016-Apr-23 18:30N 50°54' W 001°25'0 0.0
2016-Apr-23 17:33N 50°54' W 001°25'0 0.0
2016-Apr-23 16:29N 50°54' W 001°25'0 0.0
2016-Apr-23 15:32N 50°54' W 001°25'0 0.0
2016-Apr-23 14:25N 50°54' W 001°25'0 0.0
2016-Apr-23 13:31N 50°54' W 001°25'0 0.0
2016-Apr-23 12:30N 50°54' W 001°25'0 0.0
2016-Apr-23 11:21N 50°54' W 001°25'0 0.0
2016-Apr-23 10:27N 50°54' W 001°25'0 0.0
2016-Apr-23 09:32N 50°54' W 001°25'0 0.0
2016-Apr-23 08:32N 50°54' W 001°25'0 0.0
2016-Apr-23 07:19N 50°54' W 001°25'0 0.0
2016-Apr-23 06:31N 50°54' W 001°25'0 0.0
2016-Apr-23 05:30N 50°54' W 001°25'0 0.0
2016-Apr-23 04:30N 50°54' W 001°25'0 0.0
2016-Apr-23 03:33N 50°54' W 001°25'0 0.0
2016-Apr-23 02:29N 50°54' W 001°25'0 0.0
2016-Apr-23 01:32N 50°54' W 001°25'0 0.0
2016-Apr-23 00:31N 50°54' W 001°25'0 0.0
2016-Apr-22 23:31N 50°54' W 001°25'0 0.0
2016-Apr-22 22:34N 50°54' W 001°25'0 0.0
2016-Apr-22 21:33N 50°54' W 001°25'0 0.0
2016-Apr-22 20:33N 50°54' W 001°25'0 0.0
2016-Apr-22 19:32N 50°54' W 001°25'0 0.0
2016-Apr-22 18:32N 50°54' W 001°25'0 0.0
2016-Apr-22 17:31N 50°54' W 001°25'0 0.0
2016-Apr-22 16:31N 50°54' W 001°25'0 0.0
2016-Apr-22 15:30N 50°54' W 001°25'0 0.0
2016-Apr-22 14:33N 50°54' W 001°25'0 0.0
2016-Apr-22 13:33N 50°54' W 001°25'0 0.0
2016-Apr-22 12:32N 50°54' W 001°25'0 0.0
2016-Apr-22 11:26N 50°54' W 001°25'0 0.0
2016-Apr-22 10:31N 50°54' W 001°25'0 0.0
2016-Apr-22 09:25N 50°54' W 001°25'0 0.0
2016-Apr-22 08:33N 50°54' W 001°25'0 0.0
2016-Apr-22 07:30N 50°54' W 001°25'0 0.0
2016-Apr-22 06:33N 50°54' W 001°25'0 0.0
2016-Apr-22 05:29N 50°54' W 001°25'0 0.0
2016-Apr-22 04:29N 50°54' W 001°25'0 0.0
2016-Apr-22 03:28N 50°54' W 001°25'0 0.0
2016-Apr-22 02:31N 50°54' W 001°25'0 0.0
2016-Apr-22 01:33N 50°54' W 001°25'0 0.0
2016-Apr-22 00:33N 50°54' W 001°25'0 0.0
2016-Apr-21 23:33N 50°54' W 001°25'0 0.0
2016-Apr-21 22:32N 50°54' W 001°25'0 0.0
2016-Apr-21 21:29N 50°54' W 001°25'0 0.0
2016-Apr-21 20:28N 50°54' W 001°25'0 0.0
2016-Apr-21 19:31N 50°54' W 001°25'0 0.0
2016-Apr-21 18:30N 50°54' W 001°25'0 0.0
2016-Apr-21 17:33N 50°54' W 001°25'0 0.0
2016-Apr-21 16:32N 50°54' W 001°25'0 0.0
2016-Apr-21 15:23N 50°54' W 001°25'0 0.0
2016-Apr-21 14:29N 50°54' W 001°25'0 0.0
2016-Apr-21 13:31N 50°54' W 001°25'0 0.0
2016-Apr-21 12:31N 50°54' W 001°25'0 0.0
2016-Apr-21 11:33N 50°54' W 001°25'0 0.0
2016-Apr-21 10:33N 50°54' W 001°25'0 0.0
2016-Apr-21 09:23N 50°54' W 001°25'0 0.0
2016-Apr-21 08:32N 50°54' W 001°25'0 0.0
2016-Apr-21 07:32N 50°54' W 001°25'0 0.0
2016-Apr-21 06:31N 50°54' W 001°25'0 0.0
2016-Apr-21 05:31N 50°54' W 001°25'0 0.0
2016-Apr-21 04:30N 50°54' W 001°25'0 0.0
2016-Apr-21 03:33N 50°54' W 001°25'0 0.0
2016-Apr-21 02:29N 50°54' W 001°25'0 0.0
2016-Apr-21 01:29N 50°54' W 001°25'0 0.0
2016-Apr-21 00:32N 50°54' W 001°25'0 0.0
2016-Apr-20 23:25N 50°54' W 001°25'0 0.0
2016-Apr-20 22:28N 50°54' W 001°25'0 0.0
2016-Apr-20 21:09N 50°54' W 001°25'0 0.0
2016-Apr-20 20:24N 50°54' W 001°25'0 0.0
2016-Apr-20 19:29N 50°54' W 001°25'0 0.0
2016-Apr-20 18:23N 50°54' W 001°25'0 0.0
2016-Apr-20 17:32N 50°54' W 001°25'0 0.0
2016-Apr-20 16:19N 50°54' W 001°25'0 0.0
2016-Apr-20 15:28N 50°54' W 001°25'0 0.0
2016-Apr-20 14:30N 50°54' W 001°25'0 0.0
2016-Apr-20 13:33N 50°54' W 001°25'0 0.0
2016-Apr-20 12:32N 50°54' W 001°25'0 0.0
2016-Apr-20 11:32N 50°54' W 001°25'0 0.0
2016-Apr-20 10:16N 50°54' W 001°25'0 0.0
2016-Apr-20 09:31N 50°54' W 001°25'0 0.0
2016-Apr-20 08:22N 50°54' W 001°25'0 0.0
2016-Apr-20 07:33N 50°54' W 001°25'0 0.0
2016-Apr-20 06:24N 50°54' W 001°25'0 0.0
2016-Apr-20 05:32N 50°54' W 001°25'0 0.0
2016-Apr-20 04:29N 50°54' W 001°25'0 0.0
2016-Apr-20 03:32N 50°54' W 001°25'0 0.0
2016-Apr-20 02:31N 50°54' W 001°25'0 0.0
2016-Apr-20 01:25N 50°54' W 001°25'0 0.0
2016-Apr-20 00:27N 50°54' W 001°25'0 0.0
2016-Apr-19 23:33N 50°54' W 001°25'0 0.0
2016-Apr-19 22:32N 50°54' W 001°25'  
Track history (hours):
 
Tides and Currents Weather Stations Pressure Air Temp Water Temp Dewpoint Dewpoint Depression Visibility Wind Speed Wind Dir Waves Ship Positions

Hartland Point

Last reported at 2016-Apr-29 21:33 UTC. Time now 2016-Apr-30 01:29 UTC.
Position N 49°50' W 002°49'.

Length 193 m; draft 5.8 m.

Type: Ship. MMSI: 235505000.

Date/timePositionNaut miles runAvg speedWind from/ knotsBaromVisibWave heightAir tempDewpointWater temp
2016-Apr-29 21:33N 49°50' W 002°49'1312.3
2016-Apr-29 20:28N 49°44' W 003°08'1112.6
2016-Apr-29 19:33N 49°38' W 003°23'162 8.0
2016-Apr-28 23:12N 46°56' W 003°36'913.0
2016-Apr-28 22:30N 46°52' W 003°24'5512.7
2016-Apr-28 18:11N 46°23' W 002°16'812.5
2016-Apr-28 17:33N 46°19' W 002°06'1312.6
2016-Apr-28 16:33N 46°12' W 001°51'1212.3
2016-Apr-28 15:33N 46°07' W 001°34'1212.1
2016-Apr-28 14:33N 46°06' W 001°17'4 3.9
2016-Apr-28 13:32N 46°09' W 001°14'0 0.0
2016-Apr-28 12:31N 46°09' W 001°14'0 0.0
2016-Apr-28 11:28N 46°09' W 001°14'0 0.0
2016-Apr-28 10:34N 46°09' W 001°14'0 0.0
2016-Apr-28 09:33N 46°09' W 001°14'0 0.0
2016-Apr-28 08:33N 46°09' W 001°14'0 0.0
2016-Apr-28 07:32N 46°09' W 001°14'0 0.0
2016-Apr-28 06:32N 46°09' W 001°14'0 0.0
2016-Apr-28 05:31N 46°09' W 001°14'0 0.2
2016-Apr-28 04:33N 46°09' W 001°14'8 7.8
2016-Apr-28 03:33N 46°06' W 001°24'1413.8
2016-Apr-28 02:33N 46°09' W 001°44'1413.9
2016-Apr-28 01:33N 46°16' W 002°01'1111.1
2016-Apr-28 00:33N 46°18' W 002°17'1313.4
2016-Apr-27 23:33N 46°28' W 002°30'1 0.7
2016-Apr-27 22:33N 46°28' W 002°29'3013.1
2016-Apr-27 20:18N 46°43' W 003°06'1114.7
2016-Apr-27 19:33N 46°49' W 003°19'179 9.4
2016-Apr-27 00:33N 49°47' W 003°28'1515.3
2016-Apr-26 23:33N 49°55' W 003°07'1414.1
2016-Apr-26 22:34N 50°01' W 002°47'7314.5
2016-Apr-26 17:33N 50°32' W 001°05'1212.0
2016-Apr-26 16:33N 50°44' W 001°05'1312.5
2016-Apr-26 15:33N 50°51' W 001°21'3 3.2
2016-Apr-26 14:30N 50°54' W 001°25'0 0.0
2016-Apr-26 13:32N 50°54' W 001°25'0 0.0
2016-Apr-26 12:29N 50°54' W 001°25'0 0.0
2016-Apr-26 11:31N 50°54' W 001°25'0 0.0
2016-Apr-26 10:31N 50°54' W 001°25'0 0.0
2016-Apr-26 09:33N 50°54' W 001°25'0 0.0
2016-Apr-26 08:30N 50°54' W 001°25'0 0.0
2016-Apr-26 07:26N 50°54' W 001°25'0 0.0
2016-Apr-26 06:32N 50°54' W 001°25'0 0.0
2016-Apr-26 05:23N 50°54' W 001°25'0 0.0
2016-Apr-26 04:28N 50°54' W 001°25'0 0.0
2016-Apr-26 03:28N 50°54' W 001°25'0 0.0
2016-Apr-26 02:33N 50°54' W 001°25'0 0.0
2016-Apr-26 01:30N 50°54' W 001°25'0 0.0
2016-Apr-26 00:29N 50°54' W 001°25'0 0.0
2016-Apr-25 23:32N 50°54' W 001°25'0 0.0
2016-Apr-25 22:26N 50°54' W 001°25'0 0.0
2016-Apr-25 21:28N 50°54' W 001°25'0 0.0
2016-Apr-25 20:28N 50°54' W 001°25'0 0.0
2016-Apr-25 19:33N 50°54' W 001°25'0 0.0
2016-Apr-25 18:33N 50°54' W 001°25'0 0.0
2016-Apr-25 17:26N 50°54' W 001°25'0 0.0
2016-Apr-25 16:20N 50°54' W 001°25'0 0.0
2016-Apr-25 15:29N 50°54' W 001°25'0 0.0
2016-Apr-25 14:31N 50°54' W 001°25'0 0.0
2016-Apr-25 13:31N 50°54' W 001°25'0 0.0
2016-Apr-25 12:30N 50°54' W 001°25'0 0.0
2016-Apr-25 10:20N 50°54' W 001°25'0 0.0
2016-Apr-25 09:32N 50°54' W 001°25'0 0.0
2016-Apr-25 07:22N 50°54' W 001°25'0 0.0
2016-Apr-25 06:31N 50°54' W 001°25'0 0.0
2016-Apr-25 05:27N 50°54' W 001°25'0 0.0
2016-Apr-25 03:14N 50°54' W 001°25'0 0.0
2016-Apr-25 02:26N 50°54' W 001°25'0 0.0
2016-Apr-25 01:32N 50°54' W 001°25'0 0.0
2016-Apr-25 00:22N 50°54' W 001°25'0 0.0
2016-Apr-24 23:31N 50°54' W 001°25'0 0.0
2016-Apr-24 22:33N 50°54' W 001°25'0 0.0
2016-Apr-24 21:33N 50°54' W 001°25'0 0.0
2016-Apr-24 20:26N 50°54' W 001°25'0 0.0
2016-Apr-24 19:20N 50°54' W 001°25'0 0.0
2016-Apr-24 18:31N 50°54' W 001°25'0 0.0
2016-Apr-24 17:31N 50°54' W 001°25'0 0.0
2016-Apr-24 16:31N 50°54' W 001°25'0 0.0
2016-Apr-24 15:30N 50°54' W 001°25'0 0.0
2016-Apr-24 14:33N 50°54' W 001°25'0 0.0
2016-Apr-24 13:32N 50°54' W 001°25'0 0.0
2016-Apr-24 12:32N 50°54' W 001°25'0 0.0
2016-Apr-24 11:28N 50°54' W 001°25'0 0.0
2016-Apr-24 10:31N 50°54' W 001°25'0 0.0
2016-Apr-24 09:28N 50°54' W 001°25'0 0.0
2016-Apr-24 08:27N 50°54' W 001°25'0 0.0
2016-Apr-24 07:33N 50°54' W 001°25'0 0.0
2016-Apr-24 06:32N 50°54' W 001°25'0 0.0
2016-Apr-24 05:32N 50°54' W 001°25'0 0.0
2016-Apr-24 04:31N 50°54' W 001°25'0 0.0
2016-Apr-24 03:31N 50°54' W 001°25'0 0.0
2016-Apr-24 02:28N 50°54' W 001°25'0 0.0
2016-Apr-24 01:33N 50°54' W 001°25'0 0.0
2016-Apr-24 00:33N 50°54' W 001°25'0 0.0
2016-Apr-23 23:32N 50°54' W 001°25'0 0.0
2016-Apr-23 22:32N 50°54' W 001°25'0 0.0
2016-Apr-23 21:31N 50°54' W 001°25'0 0.0
2016-Apr-23 20:31N 50°54' W 001°25'0 0.0
2016-Apr-23 19:34N 50°54' W 001°25'0 0.0
2016-Apr-23 18:30N 50°54' W 001°25'0 0.0
2016-Apr-23 17:33N 50°54' W 001°25'0 0.0
2016-Apr-23 16:29N 50°54' W 001°25'0 0.0
2016-Apr-23 15:32N 50°54' W 001°25'0 0.0
2016-Apr-23 14:25N 50°54' W 001°25'0 0.0
2016-Apr-23 13:31N 50°54' W 001°25'0 0.0
2016-Apr-23 12:30N 50°54' W 001°25'0 0.0
2016-Apr-23 11:21N 50°54' W 001°25'0 0.0
2016-Apr-23 10:27N 50°54' W 001°25'0 0.0
2016-Apr-23 09:32N 50°54' W 001°25'0 0.0
2016-Apr-23 08:32N 50°54' W 001°25'0 0.0
2016-Apr-23 07:19N 50°54' W 001°25'0 0.0
2016-Apr-23 06:31N 50°54' W 001°25'0 0.0
2016-Apr-23 05:30N 50°54' W 001°25'0 0.0
2016-Apr-23 04:30N 50°54' W 001°25'0 0.0
2016-Apr-23 03:33N 50°54' W 001°25'0 0.0
2016-Apr-23 02:29N 50°54' W 001°25'0 0.0
2016-Apr-23 01:32N 50°54' W 001°25'0 0.0
2016-Apr-23 00:31N 50°54' W 001°25'0 0.0
2016-Apr-22 23:31N 50°54' W 001°25'0 0.0
2016-Apr-22 22:34N 50°54' W 001°25'0 0.0
2016-Apr-22 21:33N 50°54' W 001°25'0 0.0
2016-Apr-22 20:33N 50°54' W 001°25'0 0.0
2016-Apr-22 19:32N 50°54' W 001°25'0 0.0
2016-Apr-22 18:32N 50°54' W 001°25'0 0.0
2016-Apr-22 17:31N 50°54' W 001°25'0 0.0
2016-Apr-22 16:31N 50°54' W 001°25'0 0.0
2016-Apr-22 15:30N 50°54' W 001°25'0 0.0
2016-Apr-22 14:33N 50°54' W 001°25'0 0.0
2016-Apr-22 13:33N 50°54' W 001°25'0 0.0
2016-Apr-22 12:32N 50°54' W 001°25'0 0.0
2016-Apr-22 11:26N 50°54' W 001°25'0 0.0
2016-Apr-22 10:31N 50°54' W 001°25'0 0.0
2016-Apr-22 09:25N 50°54' W 001°25'0 0.0
2016-Apr-22 08:33N 50°54' W 001°25'0 0.0
2016-Apr-22 07:30N 50°54' W 001°25'0 0.0
2016-Apr-22 06:33N 50°54' W 001°25'0 0.0
2016-Apr-22 05:29N 50°54' W 001°25'0 0.0
2016-Apr-22 04:29N 50°54' W 001°25'0 0.0
2016-Apr-22 03:28N 50°54' W 001°25'0 0.0
2016-Apr-22 02:31N 50°54' W 001°25'0 0.0
2016-Apr-22 01:33N 50°54' W 001°25'0 0.0
2016-Apr-22 00:33N 50°54' W 001°25'0 0.0
2016-Apr-21 23:33N 50°54' W 001°25'0 0.0
2016-Apr-21 22:32N 50°54' W 001°25'0 0.0
2016-Apr-21 21:29N 50°54' W 001°25'0 0.0
2016-Apr-21 20:28N 50°54' W 001°25'0 0.0
2016-Apr-21 19:31N 50°54' W 001°25'0 0.0
2016-Apr-21 18:30N 50°54' W 001°25'0 0.0
2016-Apr-21 17:33N 50°54' W 001°25'0 0.0
2016-Apr-21 16:32N 50°54' W 001°25'0 0.0
2016-Apr-21 15:23N 50°54' W 001°25'0 0.0
2016-Apr-21 14:29N 50°54' W 001°25'0 0.0
2016-Apr-21 13:31N 50°54' W 001°25'0 0.0
2016-Apr-21 12:31N 50°54' W 001°25'0 0.0
2016-Apr-21 11:33N 50°54' W 001°25'0 0.0
2016-Apr-21 10:33N 50°54' W 001°25'0 0.0
2016-Apr-21 09:23N 50°54' W 001°25'0 0.0
2016-Apr-21 08:32N 50°54' W 001°25'0 0.0
2016-Apr-21 07:32N 50°54' W 001°25'0 0.0
2016-Apr-21 06:31N 50°54' W 001°25'0 0.0
2016-Apr-21 05:31N 50°54' W 001°25'0 0.0
2016-Apr-21 04:30N 50°54' W 001°25'0 0.0
2016-Apr-21 03:33N 50°54' W 001°25'0 0.0
2016-Apr-21 02:29N 50°54' W 001°25'0 0.0
2016-Apr-21 01:29N 50°54' W 001°25'0 0.0
2016-Apr-21 00:32N 50°54' W 001°25'0 0.0
2016-Apr-20 23:25N 50°54' W 001°25'0 0.0
2016-Apr-20 22:28N 50°54' W 001°25'0 0.0
2016-Apr-20 21:09N 50°54' W 001°25'0 0.0
2016-Apr-20 20:24N 50°54' W 001°25'0 0.0
2016-Apr-20 19:29N 50°54' W 001°25'0 0.0
2016-Apr-20 18:23N 50°54' W 001°25'0 0.0
2016-Apr-20 17:32N 50°54' W 001°25'0 0.0
2016-Apr-20 16:19N 50°54' W 001°25'0 0.0
2016-Apr-20 15:28N 50°54' W 001°25'0 0.0
2016-Apr-20 14:30N 50°54' W 001°25'0 0.0
2016-Apr-20 13:33N 50°54' W 001°25'0 0.0
2016-Apr-20 12:32N 50°54' W 001°25'0 0.0
2016-Apr-20 11:32N 50°54' W 001°25'0 0.0
2016-Apr-20 10:16N 50°54' W 001°25'0 0.0
2016-Apr-20 09:31N 50°54' W 001°25'0 0.0
2016-Apr-20 08:22N 50°54' W 001°25'0 0.0
2016-Apr-20 07:33N 50°54' W 001°25'0 0.0
2016-Apr-20 06:24N 50°54' W 001°25'0 0.0
2016-Apr-20 05:32N 50°54' W 001°25'0 0.0
2016-Apr-20 04:29N 50°54' W 001°25'0 0.0
2016-Apr-20 03:32N 50°54' W 001°25'0 0.0
2016-Apr-20 02:31N 50°54' W 001°25'0 0.0
2016-Apr-20 01:25N 50°54' W 001°25'0 0.0
2016-Apr-20 00:27N 50°54' W 001°25'0 0.0
2016-Apr-19 23:33N 50°54' W 001°25'0 0.0
2016-Apr-19 22:32N 50°54' W 001°25'  

Dump ship's entire track history